createdAt,value
2018-02-15T00:00:08.300Z,0.00
2018-02-15T00:01:08.299Z,0.00
2018-02-15T00:02:08.154Z,0.00
2018-02-15T00:03:08.436Z,0.00
2018-02-15T00:04:08.104Z,0.00
2018-02-15T00:05:08.078Z,0.00
2018-02-15T00:06:08.051Z,0.00
2018-02-15T00:07:08.027Z,0.00
2018-02-15T00:08:08.010Z,0.00
2018-02-15T00:09:07.982Z,0.00
2018-02-15T00:10:08.253Z,0.00
2018-02-15T00:11:07.926Z,0.00
2018-02-15T00:12:07.906Z,0.00
2018-02-15T00:13:07.878Z,0.00
2018-02-15T00:14:07.852Z,0.00
2018-02-15T00:15:07.823Z,0.00
2018-02-15T00:17:08.076Z,0.00
2018-02-15T00:18:07.801Z,0.00
2018-02-15T00:19:07.724Z,0.00
2018-02-15T00:20:07.698Z,0.00
2018-02-15T00:21:07.672Z,0.00
2018-02-15T00:22:07.650Z,0.00
2018-02-15T00:23:07.622Z,0.00
2018-02-15T00:24:07.900Z,0.00
2018-02-15T00:25:07.572Z,0.00
2018-02-15T00:26:07.643Z,0.00
2018-02-15T00:27:07.525Z,0.00
2018-02-15T00:28:07.494Z,0.00
2018-02-15T00:29:07.467Z,0.00
2018-02-15T00:30:07.747Z,0.00
2018-02-15T00:31:07.426Z,0.00
2018-02-15T00:32:07.399Z,0.00
2018-02-15T00:33:07.415Z,0.00
2018-02-15T00:34:07.345Z,0.00
2018-02-15T00:35:07.321Z,0.00
2018-02-15T00:36:07.599Z,0.00
2018-02-15T00:37:07.264Z,0.00
2018-02-15T00:38:07.246Z,0.00
2018-02-15T00:39:07.266Z,0.00
2018-02-15T00:40:07.186Z,0.00
2018-02-15T00:41:07.167Z,0.00
2018-02-15T00:42:07.437Z,0.00
2018-02-15T00:43:07.112Z,0.00
2018-02-15T00:44:07.114Z,0.00
2018-02-15T00:45:07.113Z,0.00
2018-02-15T00:46:07.035Z,0.00
2018-02-15T00:47:07.010Z,0.00
2018-02-15T00:48:07.292Z,0.00
2018-02-15T00:49:06.959Z,0.00
2018-02-15T00:50:06.967Z,0.00
2018-02-15T00:51:06.965Z,0.00
2018-02-15T00:52:06.890Z,0.00
2018-02-15T00:53:06.865Z,0.00
2018-02-15T00:54:07.182Z,0.00
2018-02-15T00:55:06.809Z,0.00
2018-02-15T00:56:06.789Z,0.00
2018-02-15T00:57:06.759Z,0.00
2018-02-15T00:58:06.733Z,0.00
2018-02-15T00:59:06.706Z,0.00
2018-02-15T01:00:06.980Z,0.00
2018-02-15T01:01:06.655Z,0.00
2018-02-15T01:02:06.627Z,0.00
2018-02-15T01:03:06.608Z,0.00
2018-02-15T01:04:06.575Z,0.00
2018-02-15T01:05:06.554Z,0.00
2018-02-15T01:06:06.524Z,0.00
2018-02-15T01:07:06.812Z,0.00
2018-02-15T01:08:06.630Z,0.00
2018-02-15T01:09:06.445Z,0.00
2018-02-15T01:10:06.426Z,0.00
2018-02-15T01:11:06.400Z,0.00
2018-02-15T01:12:06.373Z,0.00
2018-02-15T01:13:06.346Z,0.00
2018-02-15T01:14:06.622Z,0.00
2018-02-15T01:15:06.295Z,0.00
2018-02-15T01:16:06.270Z,0.00
2018-02-15T01:17:06.241Z,0.00
2018-02-15T01:18:06.216Z,0.00
2018-02-15T01:19:06.194Z,0.00
2018-02-15T01:20:06.167Z,0.00
2018-02-15T01:21:06.442Z,0.00
2018-02-15T01:22:06.122Z,0.00
2018-02-15T01:23:06.088Z,0.00
2018-02-15T01:24:06.069Z,0.00
2018-02-15T01:25:06.042Z,0.00
2018-02-15T01:26:06.013Z,0.00
2018-02-15T01:27:05.985Z,0.00
2018-02-15T01:28:06.270Z,0.00
2018-02-15T01:29:05.944Z,0.00
2018-02-15T01:30:05.929Z,0.00
2018-02-15T01:31:05.883Z,0.00
2018-02-15T01:32:05.861Z,0.00
2018-02-15T01:33:05.831Z,0.00
2018-02-15T01:34:05.806Z,0.00
2018-02-15T01:35:06.091Z,0.00
2018-02-15T01:36:05.761Z,0.00
2018-02-15T01:37:05.729Z,0.00
2018-02-15T01:38:05.711Z,0.00
2018-02-15T01:39:05.688Z,0.00
2018-02-15T01:40:05.664Z,0.00
2018-02-15T01:41:05.647Z,0.00
2018-02-15T01:42:05.901Z,0.00
2018-02-15T01:43:05.578Z,0.00
2018-02-15T01:44:05.547Z,0.00
2018-02-15T01:45:05.532Z,0.00
2018-02-15T01:46:05.499Z,0.00
2018-02-15T01:47:05.483Z,0.00
2018-02-15T01:48:05.455Z,0.00
2018-02-15T01:49:05.742Z,0.00
2018-02-15T01:50:05.396Z,0.00
2018-02-15T01:51:05.370Z,0.00
2018-02-15T01:52:05.402Z,0.00
2018-02-15T01:53:05.325Z,0.00
2018-02-15T01:54:05.292Z,0.00
2018-02-15T01:55:05.570Z,0.00
2018-02-15T01:56:05.244Z,0.00
2018-02-15T01:57:05.215Z,0.00
2018-02-15T01:58:05.190Z,0.00
2018-02-15T01:59:05.163Z,0.00
2018-02-15T02:00:05.139Z,0.00
2018-02-15T02:01:05.412Z,0.00
2018-02-15T02:02:05.094Z,0.00
2018-02-15T02:03:05.110Z,0.00
2018-02-15T02:04:05.043Z,0.00
2018-02-15T02:05:05.019Z,0.00
2018-02-15T02:06:04.997Z,0.00
2018-02-15T02:07:05.268Z,0.00
2018-02-15T02:08:04.943Z,0.00
2018-02-15T02:09:04.920Z,0.00
2018-02-15T02:10:04.895Z,0.00
2018-02-15T02:12:04.837Z,0.00
2018-02-15T02:13:04.807Z,0.00
2018-02-15T02:14:05.089Z,0.00
2018-02-15T02:15:04.755Z,0.00
2018-02-15T02:16:04.730Z,0.00
2018-02-15T02:17:04.703Z,0.00
2018-02-15T02:18:04.681Z,0.00
2018-02-15T02:19:04.652Z,0.00
2018-02-15T02:20:04.928Z,0.00
2018-02-15T02:21:04.695Z,0.00
2018-02-15T02:22:04.574Z,0.00
2018-02-15T02:23:04.608Z,0.00
2018-02-15T02:24:04.526Z,0.00
2018-02-15T02:25:04.508Z,0.00
2018-02-15T02:26:04.791Z,0.00
2018-02-15T02:27:04.455Z,0.00
2018-02-15T02:28:04.431Z,0.00
2018-02-15T02:29:04.446Z,0.00
2018-02-15T02:30:04.377Z,0.00
2018-02-15T02:31:04.344Z,0.00
2018-02-15T02:32:04.454Z,0.00
2018-02-15T02:33:04.755Z,0.00
2018-02-15T02:34:04.274Z,0.00
2018-02-15T02:35:04.247Z,0.00
2018-02-15T02:36:04.229Z,0.00
2018-02-15T02:37:04.194Z,0.00
2018-02-15T02:38:04.522Z,0.00
2018-02-15T02:39:04.143Z,0.00
2018-02-15T02:40:04.416Z,0.00
2018-02-15T02:41:04.094Z,0.00
2018-02-15T02:42:04.070Z,0.00
2018-02-15T02:43:04.041Z,0.00
2018-02-15T02:44:04.065Z,0.00
2018-02-15T02:45:03.990Z,0.00
2018-02-15T02:46:03.977Z,0.00
2018-02-15T02:47:04.245Z,0.00
2018-02-15T02:48:03.924Z,0.00
2018-02-15T02:49:03.903Z,0.00
2018-02-15T02:50:05.074Z,0.00
2018-02-15T02:51:03.835Z,0.00
2018-02-15T02:52:03.815Z,0.00
2018-02-15T02:53:03.787Z,0.00
2018-02-15T02:54:04.064Z,0.00
2018-02-15T02:55:03.743Z,0.00
2018-02-15T02:56:03.708Z,0.00
2018-02-15T02:57:03.689Z,0.00
2018-02-15T02:58:03.656Z,0.00
2018-02-15T02:59:03.643Z,0.00
2018-02-15T03:00:03.606Z,0.00
2018-02-15T03:01:03.890Z,0.00
2018-02-15T03:02:03.554Z,0.00
2018-02-15T03:03:03.536Z,0.00
2018-02-15T03:04:03.503Z,0.00
2018-02-15T03:05:03.477Z,0.00
2018-02-15T03:06:03.459Z,0.00
2018-02-15T03:07:03.425Z,0.00
2018-02-15T03:08:03.714Z,0.00
2018-02-15T03:09:03.374Z,0.00
2018-02-15T03:10:03.365Z,0.00
2018-02-15T03:11:03.346Z,0.00
2018-02-15T03:12:03.296Z,0.00
2018-02-15T03:13:03.280Z,0.00
2018-02-15T03:14:03.552Z,0.00
2018-02-15T03:15:03.228Z,0.00
2018-02-15T03:16:03.200Z,0.00
2018-02-15T03:17:03.171Z,0.00
2018-02-15T03:18:04.353Z,0.00
2018-02-15T03:19:03.124Z,0.00
2018-02-15T03:20:03.405Z,0.00
2018-02-15T03:21:03.073Z,0.00
2018-02-15T03:22:03.045Z,0.00
2018-02-15T03:23:03.022Z,0.00
2018-02-15T03:24:02.993Z,0.00
2018-02-15T03:25:02.974Z,0.00
2018-02-15T03:26:03.259Z,0.00
2018-02-15T03:27:02.921Z,0.00
2018-02-15T03:28:02.890Z,0.00
2018-02-15T03:29:02.874Z,0.00
2018-02-15T03:30:02.839Z,0.00
2018-02-15T03:31:02.817Z,0.00
2018-02-15T03:32:03.089Z,0.00
2018-02-15T03:33:02.768Z,0.00
2018-02-15T03:34:02.739Z,0.00
2018-02-15T03:35:02.712Z,0.00
2018-02-15T03:36:02.699Z,0.00
2018-02-15T03:37:02.731Z,0.00
2018-02-15T03:38:02.945Z,0.00
2018-02-15T03:39:02.676Z,0.00
2018-02-15T03:40:02.587Z,0.00
2018-02-15T03:41:02.558Z,0.00
2018-02-15T03:42:02.539Z,0.00
2018-02-15T03:43:02.523Z,0.00
2018-02-15T03:44:02.789Z,0.00
2018-02-15T03:45:02.464Z,0.00
2018-02-15T03:46:02.444Z,0.00
2018-02-15T03:47:02.408Z,0.00
2018-02-15T03:48:02.388Z,0.00
2018-02-15T03:49:02.359Z,0.00
2018-02-15T03:50:02.335Z,0.00
2018-02-15T03:51:02.613Z,0.00
2018-02-15T03:52:02.278Z,0.00
2018-02-15T03:53:02.264Z,0.00
2018-02-15T03:54:02.226Z,0.00
2018-02-15T03:55:02.201Z,0.00
2018-02-15T03:56:02.180Z,0.00
2018-02-15T03:57:02.211Z,0.00
2018-02-15T03:58:02.428Z,0.00
2018-02-15T03:59:02.104Z,0.00
2018-02-15T04:00:02.082Z,0.00
2018-02-15T04:01:02.048Z,0.00
2018-02-15T04:02:02.024Z,0.00
2018-02-15T04:03:02.048Z,0.00
2018-02-15T04:04:01.973Z,0.00
2018-02-15T04:05:02.247Z,0.00
2018-02-15T04:06:01.927Z,0.00
2018-02-15T04:07:01.900Z,0.00
2018-02-15T04:08:01.869Z,0.00
2018-02-15T04:09:01.895Z,0.00
2018-02-15T04:10:01.818Z,0.00
2018-02-15T04:11:01.792Z,0.00
2018-02-15T04:12:02.068Z,0.00
2018-02-15T04:13:01.751Z,0.00
2018-02-15T04:14:01.719Z,0.00
2018-02-15T04:15:01.697Z,0.00
2018-02-15T04:16:01.678Z,0.00
2018-02-15T04:17:01.641Z,0.00
2018-02-15T04:18:01.615Z,0.00
2018-02-15T04:19:01.889Z,0.00
2018-02-15T04:20:01.573Z,0.00
2018-02-15T04:21:01.542Z,0.00
2018-02-15T04:22:01.512Z,0.00
2018-02-15T04:23:01.505Z,0.00
2018-02-15T04:24:01.462Z,0.00
2018-02-15T04:25:01.441Z,0.00
2018-02-15T04:26:01.713Z,0.00
2018-02-15T04:27:01.405Z,0.00
2018-02-15T04:28:01.360Z,0.00
2018-02-15T04:29:01.340Z,0.00
2018-02-15T04:30:01.315Z,0.00
2018-02-15T04:31:01.363Z,0.00
2018-02-15T04:32:01.274Z,0.00
2018-02-15T04:33:01.545Z,0.00
2018-02-15T04:34:01.208Z,0.00
2018-02-15T04:35:01.184Z,0.00
2018-02-15T04:36:01.208Z,0.00
2018-02-15T04:37:01.134Z,0.00
2018-02-15T04:38:01.115Z,0.00
2018-02-15T04:39:01.379Z,0.00
2018-02-15T04:40:01.111Z,0.00
2018-02-15T04:41:01.039Z,0.00
2018-02-15T04:42:01.003Z,0.00
2018-02-15T04:43:00.992Z,0.00
2018-02-15T04:44:00.953Z,0.00
2018-02-15T04:45:01.228Z,0.00
2018-02-15T04:46:00.952Z,0.00
2018-02-15T04:47:00.881Z,0.00
2018-02-15T04:48:00.855Z,0.00
2018-02-15T04:49:00.841Z,0.00
2018-02-15T04:50:00.848Z,0.00
2018-02-15T04:51:01.073Z,0.00
2018-02-15T04:52:00.752Z,0.00
2018-02-15T04:53:00.722Z,0.00
2018-02-15T04:54:00.699Z,0.00
2018-02-15T04:55:00.675Z,0.00
2018-02-15T04:56:00.647Z,0.00
2018-02-15T04:57:00.922Z,0.00
2018-02-15T04:58:00.602Z,0.00
2018-02-15T04:59:00.574Z,0.00
2018-02-15T05:00:00.603Z,0.00
2018-02-15T05:01:00.519Z,0.00
2018-02-15T05:02:00.495Z,0.00
2018-02-15T05:03:00.780Z,0.00
2018-02-15T05:04:00.447Z,0.00
2018-02-15T05:05:00.416Z,0.00
2018-02-15T05:06:00.396Z,0.00
2018-02-15T05:07:00.365Z,0.00
2018-02-15T05:08:00.351Z,0.00
2018-02-15T05:09:00.732Z,0.00
2018-02-15T05:10:00.295Z,0.00
2018-02-15T05:11:00.263Z,0.00
2018-02-15T05:12:00.253Z,0.00
2018-02-15T05:13:00.234Z,0.00
2018-02-15T05:14:00.186Z,0.00
2018-02-15T05:15:00.160Z,0.00
2018-02-15T05:16:00.442Z,0.00
2018-02-15T05:17:00.109Z,0.00
2018-02-15T05:18:00.086Z,0.00
2018-02-15T05:19:00.069Z,0.00
2018-02-15T05:20:00.050Z,0.00
2018-02-15T05:21:00.018Z,0.00
2018-02-15T05:21:59.992Z,0.00
2018-02-15T05:23:00.259Z,0.00
2018-02-15T05:23:59.932Z,0.00
2018-02-15T05:24:59.916Z,0.00
2018-02-15T05:25:59.888Z,0.00
2018-02-15T05:26:59.859Z,0.00
2018-02-15T05:27:59.834Z,0.00
2018-02-15T05:28:59.803Z,0.00
2018-02-15T05:30:00.088Z,0.00
2018-02-15T05:30:59.752Z,0.00
2018-02-15T05:31:59.733Z,0.00
2018-02-15T05:32:59.757Z,0.00
2018-02-15T05:34:59.655Z,0.00
2018-02-15T05:35:59.624Z,0.00
2018-02-15T05:36:59.900Z,0.00
2018-02-15T05:37:59.577Z,0.00
2018-02-15T05:38:59.600Z,0.00
2018-02-15T05:39:59.611Z,0.00
2018-02-15T05:40:59.501Z,0.00
2018-02-15T05:41:59.476Z,0.00
2018-02-15T05:42:59.446Z,0.00
2018-02-15T05:43:59.718Z,0.00
2018-02-15T05:44:59.451Z,0.00
2018-02-15T05:45:59.372Z,0.00
2018-02-15T05:46:59.351Z,0.00
2018-02-15T05:47:59.318Z,0.00
2018-02-15T05:48:59.289Z,0.00
2018-02-15T05:49:59.265Z,0.00
2018-02-15T05:50:59.542Z,0.00
2018-02-15T05:52:59.486Z,0.00
2018-02-15T05:53:59.173Z,0.00
2018-02-15T05:54:59.136Z,0.00
2018-02-15T05:55:59.111Z,0.00
2018-02-15T05:56:59.424Z,0.00
2018-02-15T05:57:59.067Z,0.00
2018-02-15T05:58:59.083Z,0.00
2018-02-15T05:59:59.017Z,0.00
2018-02-15T06:00:58.985Z,0.00
2018-02-15T06:01:58.963Z,0.00
2018-02-15T06:02:59.234Z,0.00
2018-02-15T06:03:58.904Z,0.00
2018-02-15T06:04:58.931Z,0.00
2018-02-15T06:05:58.853Z,0.00
2018-02-15T06:06:58.826Z,0.00
2018-02-15T06:07:58.811Z,0.00
2018-02-15T06:08:59.077Z,0.00
2018-02-15T06:09:58.749Z,0.00
2018-02-15T06:10:58.723Z,0.00
2018-02-15T06:11:58.703Z,0.00
2018-02-15T06:12:58.685Z,0.00
2018-02-15T06:13:58.694Z,0.00
2018-02-15T06:14:58.924Z,0.00
2018-02-15T06:15:58.849Z,0.00
2018-02-15T06:16:58.777Z,0.00
2018-02-15T06:17:58.601Z,0.00
2018-02-15T06:18:58.750Z,0.00
2018-02-15T06:19:58.576Z,0.00
2018-02-15T06:20:58.868Z,0.00
2018-02-15T06:21:58.501Z,0.00
2018-02-15T06:22:58.579Z,0.00
2018-02-15T06:23:58.569Z,0.00
2018-02-15T06:24:58.420Z,0.00
2018-02-15T06:25:58.478Z,0.00
2018-02-15T06:26:59.005Z,5.63
2018-02-15T06:27:58.359Z,5.63
2018-02-15T06:28:58.510Z,5.63
2018-02-15T06:29:58.372Z,5.63
2018-02-15T06:30:58.906Z,5.63
2018-02-15T06:31:58.387Z,5.63
2018-02-15T06:32:58.626Z,5.63
2018-02-15T06:33:58.249Z,5.63
2018-02-15T06:34:58.226Z,5.63
2018-02-15T06:35:58.556Z,5.63
2018-02-15T06:36:58.172Z,5.63
2018-02-15T06:37:58.036Z,5.63
2018-02-15T06:38:58.002Z,5.63
2018-02-15T06:39:57.976Z,11.25
2018-02-15T06:40:57.965Z,11.25
2018-02-15T06:41:57.929Z,11.25
2018-02-15T06:42:57.905Z,11.25
2018-02-15T06:43:57.878Z,11.25
2018-02-15T06:44:57.846Z,16.88
2018-02-15T06:45:58.123Z,16.88
2018-02-15T06:46:57.809Z,16.88
2018-02-15T06:47:57.775Z,22.50
2018-02-15T06:48:57.746Z,22.50
2018-02-15T06:49:57.718Z,22.50
2018-02-15T06:50:57.713Z,28.13
2018-02-15T06:51:57.667Z,28.13
2018-02-15T06:52:57.941Z,33.75
2018-02-15T06:53:57.617Z,39.38
2018-02-15T06:54:57.600Z,39.38
2018-02-15T06:55:57.568Z,45.00
2018-02-15T06:57:57.528Z,50.63
2018-02-15T06:58:57.787Z,50.63
2018-02-15T06:59:57.468Z,56.25
2018-02-15T07:00:57.436Z,56.25
2018-02-15T07:01:57.414Z,56.25
2018-02-15T07:02:57.447Z,56.25
2018-02-15T07:03:57.378Z,61.88
2018-02-15T07:04:57.337Z,56.25
2018-02-15T07:05:57.622Z,61.88
2018-02-15T07:06:57.282Z,61.88
2018-02-15T07:07:57.258Z,61.88
2018-02-15T07:08:57.231Z,67.50
2018-02-15T07:09:57.203Z,67.50
2018-02-15T07:10:57.187Z,67.50
2018-02-15T07:11:57.202Z,67.50
2018-02-15T07:12:57.436Z,67.50
2018-02-15T07:13:57.104Z,67.50
2018-02-15T07:14:57.099Z,67.50
2018-02-15T07:15:57.052Z,67.50
2018-02-15T07:16:57.112Z,73.13
2018-02-15T07:17:57.014Z,78.75
2018-02-15T07:18:57.273Z,78.75
2018-02-15T07:19:56.949Z,90.00
2018-02-15T07:20:56.946Z,101.25
2018-02-15T07:21:56.895Z,112.50
2018-02-15T07:22:56.879Z,118.13
2018-02-15T07:24:57.184Z,118.13
2018-02-15T07:25:57.103Z,123.75
2018-02-15T07:26:57.176Z,123.75
2018-02-15T07:27:56.906Z,129.38
2018-02-15T07:28:56.957Z,135.00
2018-02-15T07:29:56.824Z,140.63
2018-02-15T07:30:56.821Z,146.25
2018-02-15T07:31:56.644Z,146.25
2018-02-15T07:32:56.620Z,151.88
2018-02-15T07:33:56.597Z,157.50
2018-02-15T07:34:56.597Z,174.38
2018-02-15T07:35:56.821Z,185.63
2018-02-15T07:36:56.829Z,185.63
2018-02-15T07:37:56.503Z,196.88
2018-02-15T07:38:56.479Z,202.50
2018-02-15T07:39:56.463Z,185.63
2018-02-15T07:40:56.422Z,191.25
2018-02-15T07:41:56.399Z,191.25
2018-02-15T07:42:56.676Z,174.38
2018-02-15T07:44:56.333Z,151.88
2018-02-15T07:45:56.354Z,146.25
2018-02-15T07:46:56.285Z,157.50
2018-02-15T07:47:56.256Z,168.75
2018-02-15T07:48:56.533Z,196.88
2018-02-15T07:49:56.204Z,202.50
2018-02-15T07:50:56.252Z,236.25
2018-02-15T07:51:56.166Z,191.25
2018-02-15T07:52:56.135Z,180.00
2018-02-15T07:53:56.108Z,219.38
2018-02-15T07:54:56.387Z,213.75
2018-02-15T07:55:56.061Z,185.63
2018-02-15T07:56:56.042Z,208.13
2018-02-15T07:57:56.016Z,208.13
2018-02-15T07:58:55.994Z,236.25
2018-02-15T07:59:55.972Z,270.00
2018-02-15T08:00:56.253Z,264.38
2018-02-15T08:01:55.972Z,292.50
2018-02-15T08:02:55.904Z,275.63
2018-02-15T08:03:55.937Z,292.50
2018-02-15T08:04:55.859Z,286.88
2018-02-15T08:05:55.831Z,253.13
2018-02-15T08:06:55.818Z,253.13
2018-02-15T08:07:55.792Z,253.13
2018-02-15T08:08:55.764Z,258.75
2018-02-15T08:09:55.749Z,236.25
2018-02-15T08:10:55.716Z,196.88
2018-02-15T08:11:55.694Z,185.63
2018-02-15T08:12:55.680Z,191.25
2018-02-15T08:13:55.949Z,202.50
2018-02-15T08:14:55.624Z,191.25
2018-02-15T08:15:55.601Z,174.38
2018-02-15T08:16:55.630Z,168.75
2018-02-15T08:17:55.558Z,180.00
2018-02-15T08:18:55.538Z,196.88
2018-02-15T08:19:55.511Z,208.13
2018-02-15T08:20:55.794Z,219.38
2018-02-15T08:21:55.473Z,219.38
2018-02-15T08:22:55.443Z,225.00
2018-02-15T08:23:55.425Z,219.38
2018-02-15T08:24:55.399Z,213.75
2018-02-15T08:25:55.384Z,202.50
2018-02-15T08:26:55.652Z,202.50
2018-02-15T08:27:55.332Z,202.50
2018-02-15T08:28:55.317Z,202.50
2018-02-15T08:29:55.284Z,213.75
2018-02-15T08:30:55.269Z,225.00
2018-02-15T08:31:55.264Z,236.25
2018-02-15T08:32:55.224Z,253.13
2018-02-15T08:33:55.504Z,270.00
2018-02-15T08:34:55.175Z,270.00
2018-02-15T08:35:55.207Z,253.13
2018-02-15T08:36:55.126Z,236.25
2018-02-15T08:37:55.107Z,213.75
2018-02-15T08:38:55.082Z,191.25
2018-02-15T08:40:55.348Z,163.13
2018-02-15T08:41:55.018Z,157.50
2018-02-15T08:42:54.990Z,157.50
2018-02-15T08:43:54.970Z,163.13
2018-02-15T08:44:54.948Z,163.13
2018-02-15T08:45:54.924Z,168.75
2018-02-15T08:46:55.211Z,168.75
2018-02-15T08:47:54.938Z,174.38
2018-02-15T08:48:54.869Z,185.63
2018-02-15T08:49:54.834Z,191.25
2018-02-15T08:50:54.812Z,202.50
2018-02-15T08:51:54.789Z,202.50
2018-02-15T08:52:54.769Z,202.50
2018-02-15T08:53:55.047Z,196.88
2018-02-15T08:54:54.721Z,185.63
2018-02-15T08:55:54.708Z,180.00
2018-02-15T08:56:54.682Z,168.75
2018-02-15T08:57:54.660Z,174.38
2018-02-15T08:58:54.632Z,174.38
2018-02-15T08:59:54.960Z,185.63
2018-02-15T09:00:54.589Z,208.13
2018-02-15T09:01:54.573Z,225.00
2018-02-15T09:02:54.549Z,230.63
2018-02-15T09:03:54.521Z,225.00
2018-02-15T09:04:54.491Z,219.38
2018-02-15T09:05:54.789Z,219.38
2018-02-15T09:06:54.451Z,208.13
2018-02-15T09:07:54.437Z,202.50
2018-02-15T09:08:54.408Z,191.25
2018-02-15T09:09:54.379Z,185.63
2018-02-15T09:10:54.677Z,180.00
2018-02-15T09:11:54.642Z,174.38
2018-02-15T09:12:54.328Z,174.38
2018-02-15T09:13:54.289Z,168.75
2018-02-15T09:14:54.267Z,163.13
2018-02-15T09:15:54.580Z,163.13
2018-02-15T09:16:54.223Z,163.13
2018-02-15T09:17:54.507Z,168.75
2018-02-15T09:18:54.218Z,163.13
2018-02-15T09:19:54.152Z,163.13
2018-02-15T09:20:54.234Z,151.88
2018-02-15T09:21:54.109Z,140.63
2018-02-15T09:22:54.098Z,146.25
2018-02-15T09:23:54.092Z,140.63
2018-02-15T09:24:54.656Z,135.00
2018-02-15T09:25:54.013Z,129.38
2018-02-15T09:26:54.003Z,123.75
2018-02-15T09:27:53.971Z,118.13
2018-02-15T09:28:53.951Z,118.13
2018-02-15T09:29:53.922Z,118.13
2018-02-15T09:30:54.201Z,112.50
2018-02-15T09:31:53.884Z,101.25
2018-02-15T09:32:53.854Z,101.25
2018-02-15T09:33:53.834Z,112.50
2018-02-15T09:34:53.811Z,118.13
2018-02-15T09:35:53.793Z,123.75
2018-02-15T09:36:54.145Z,129.38
2018-02-15T09:37:53.740Z,140.63
2018-02-15T09:38:53.717Z,146.25
2018-02-15T09:39:53.752Z,157.50
2018-02-15T09:40:53.798Z,180.00
2018-02-15T09:41:53.657Z,196.88
2018-02-15T09:42:53.632Z,213.75
2018-02-15T09:43:53.901Z,219.38
2018-02-15T09:44:53.579Z,230.63
2018-02-15T09:45:53.555Z,241.88
2018-02-15T09:46:53.534Z,264.38
2018-02-15T09:47:53.509Z,281.25
2018-02-15T09:48:53.489Z,281.25
2018-02-15T09:49:53.464Z,275.63
2018-02-15T09:50:53.754Z,281.25
2018-02-15T09:51:53.418Z,286.88
2018-02-15T09:52:53.402Z,292.50
2018-02-15T09:53:53.402Z,303.75
2018-02-15T09:54:53.556Z,315.00
2018-02-15T09:55:53.387Z,315.00
2018-02-15T09:56:53.304Z,303.75
2018-02-15T09:57:53.587Z,298.13
2018-02-15T09:58:53.258Z,292.50
2018-02-15T09:59:53.240Z,275.63
2018-02-15T10:00:53.216Z,275.63
2018-02-15T10:01:53.192Z,286.88
2018-02-15T10:02:53.178Z,286.88
2018-02-15T10:03:53.452Z,270.00
2018-02-15T10:04:53.129Z,253.13
2018-02-15T10:05:53.109Z,247.50
2018-02-15T10:06:53.091Z,253.13
2018-02-15T10:07:53.061Z,247.50
2018-02-15T10:08:53.045Z,241.88
2018-02-15T10:09:53.323Z,241.88
2018-02-15T10:10:52.994Z,236.25
2018-02-15T10:11:52.985Z,225.00
2018-02-15T10:12:52.952Z,219.38
2018-02-15T10:13:52.933Z,219.38
2018-02-15T10:14:52.908Z,213.75
2018-02-15T10:15:52.929Z,213.75
2018-02-15T10:16:53.165Z,230.63
2018-02-15T10:17:52.839Z,241.88
2018-02-15T10:18:52.956Z,247.50
2018-02-15T10:19:52.850Z,241.88
2018-02-15T10:20:52.782Z,253.13
2018-02-15T10:21:52.758Z,253.13
2018-02-15T10:22:53.059Z,281.25
2018-02-15T10:23:52.712Z,286.88
2018-02-15T10:24:52.694Z,281.25
2018-02-15T10:25:52.669Z,264.38
2018-02-15T10:26:52.646Z,258.75
2018-02-15T10:27:52.621Z,225.00
2018-02-15T10:28:52.600Z,196.88
2018-02-15T10:29:52.879Z,174.38
2018-02-15T10:30:52.563Z,180.00
2018-02-15T10:31:52.533Z,202.50
2018-02-15T10:32:52.520Z,213.75
2018-02-15T10:33:52.492Z,213.75
2018-02-15T10:34:52.470Z,213.75
2018-02-15T10:35:52.760Z,219.38
2018-02-15T10:36:52.430Z,225.00
2018-02-15T10:38:52.582Z,208.13
2018-02-15T10:39:52.431Z,185.63
2018-02-15T10:40:52.668Z,174.38
2018-02-15T10:41:53.196Z,168.75
2018-02-15T10:42:52.598Z,185.63
2018-02-15T10:43:52.422Z,191.25
2018-02-15T10:44:52.316Z,196.88
2018-02-15T10:45:52.230Z,191.25
2018-02-15T10:46:52.208Z,185.63
2018-02-15T10:47:52.491Z,185.63
2018-02-15T10:48:52.191Z,174.38
2018-02-15T10:49:52.146Z,180.00
2018-02-15T10:50:52.122Z,191.25
2018-02-15T10:51:52.104Z,202.50
2018-02-15T10:52:52.084Z,191.25
2018-02-15T10:53:52.359Z,180.00
2018-02-15T10:54:52.052Z,174.38
2018-02-15T10:55:52.023Z,168.75
2018-02-15T10:56:51.998Z,168.75
2018-02-15T10:57:51.977Z,174.38
2018-02-15T10:58:51.947Z,180.00
2018-02-15T10:59:51.924Z,191.25
2018-02-15T11:00:52.202Z,196.88
2018-02-15T11:01:51.884Z,191.25
2018-02-15T11:02:52.063Z,191.25
2018-02-15T11:03:51.840Z,185.63
2018-02-15T11:04:51.835Z,180.00
2018-02-15T11:05:51.801Z,180.00
2018-02-15T11:06:51.771Z,180.00
2018-02-15T11:07:52.053Z,174.38
2018-02-15T11:08:51.735Z,174.38
2018-02-15T11:09:51.756Z,174.38
2018-02-15T11:10:51.688Z,174.38
2018-02-15T11:11:51.669Z,196.88
2018-02-15T11:12:51.642Z,213.75
2018-02-15T11:13:51.919Z,219.38
2018-02-15T11:14:51.624Z,219.38
2018-02-15T11:15:51.691Z,219.38
2018-02-15T11:16:51.576Z,219.38
2018-02-15T11:17:51.544Z,236.25
2018-02-15T11:18:51.510Z,247.50
2018-02-15T11:19:51.792Z,253.13
2018-02-15T11:20:51.471Z,247.50
2018-02-15T11:21:51.446Z,247.50
2018-02-15T11:22:51.421Z,236.25
2018-02-15T11:23:51.530Z,241.88
2018-02-15T11:24:51.386Z,241.88
2018-02-15T11:25:51.363Z,236.25
2018-02-15T11:26:51.637Z,241.88
2018-02-15T11:27:51.317Z,247.50
2018-02-15T11:28:51.305Z,253.13
2018-02-15T11:29:51.282Z,241.88
2018-02-15T11:30:51.255Z,230.63
2018-02-15T11:32:51.511Z,196.88
2018-02-15T11:33:51.195Z,185.63
2018-02-15T11:34:51.165Z,191.25
2018-02-15T11:35:51.146Z,196.88
2018-02-15T11:36:51.157Z,213.75
2018-02-15T11:37:51.170Z,219.38
2018-02-15T11:38:51.384Z,241.88
2018-02-15T11:39:51.081Z,241.88
2018-02-15T11:40:51.045Z,241.88
2018-02-15T11:41:51.084Z,241.88
2018-02-15T11:42:51.002Z,247.50
2018-02-15T11:43:50.985Z,236.25
2018-02-15T11:44:51.254Z,225.00
2018-02-15T11:45:50.941Z,208.13
2018-02-15T11:46:50.914Z,196.88
2018-02-15T11:47:50.891Z,180.00
2018-02-15T11:48:50.887Z,174.38
2018-02-15T11:50:51.126Z,174.38
2018-02-15T11:51:50.961Z,174.38
2018-02-15T11:52:54.134Z,174.38
2018-02-15T11:53:50.765Z,168.75
2018-02-15T11:54:50.790Z,168.75
2018-02-15T11:55:50.720Z,168.75
2018-02-15T11:56:50.695Z,174.38
2018-02-15T11:57:50.970Z,168.75
2018-02-15T11:58:50.949Z,174.38
2018-02-15T11:59:50.636Z,174.38
2018-02-15T12:00:50.658Z,174.38
2018-02-15T12:01:50.631Z,174.38
2018-02-15T12:02:50.584Z,174.38
2018-02-15T12:03:50.839Z,174.38
2018-02-15T12:04:50.520Z,174.38
2018-02-15T12:05:50.508Z,174.38
2018-02-15T12:06:50.474Z,174.38
2018-02-15T12:07:50.507Z,168.75
2018-02-15T12:09:50.704Z,180.00
2018-02-15T12:10:50.411Z,185.63
2018-02-15T12:11:50.359Z,185.63
2018-02-15T12:12:50.339Z,180.00
2018-02-15T12:13:50.323Z,185.63
2018-02-15T12:14:50.294Z,185.63
2018-02-15T12:15:50.575Z,180.00
2018-02-15T12:16:50.251Z,174.38
2018-02-15T12:17:50.738Z,174.38
2018-02-15T12:18:50.208Z,174.38
2018-02-15T12:19:50.189Z,180.00
2018-02-15T12:20:50.157Z,180.00
2018-02-15T12:21:50.363Z,174.38
2018-02-15T12:22:50.418Z,174.38
2018-02-15T12:23:50.099Z,168.75
2018-02-15T12:24:50.070Z,168.75
2018-02-15T12:25:50.045Z,168.75
2018-02-15T12:26:50.023Z,163.13
2018-02-15T12:27:50.046Z,151.88
2018-02-15T12:28:50.285Z,151.88
2018-02-15T12:29:49.970Z,151.88
2018-02-15T12:30:49.937Z,151.88
2018-02-15T12:31:49.915Z,151.88
2018-02-15T12:32:49.899Z,151.88
2018-02-15T12:33:50.035Z,151.88
2018-02-15T12:34:50.193Z,157.50
2018-02-15T12:35:49.822Z,157.50
2018-02-15T12:36:49.800Z,157.50
2018-02-15T12:37:49.782Z,163.13
2018-02-15T12:38:49.754Z,163.13
2018-02-15T12:39:49.741Z,151.88
2018-02-15T12:40:50.064Z,151.88
2018-02-15T12:41:49.685Z,151.88
2018-02-15T12:42:49.674Z,146.25
2018-02-15T12:43:49.662Z,140.63
2018-02-15T12:44:49.647Z,146.25
2018-02-15T12:45:49.634Z,151.88
2018-02-15T12:46:50.103Z,151.88
2018-02-15T12:47:49.600Z,157.50
2018-02-15T12:49:49.589Z,163.13
2018-02-15T12:50:49.484Z,168.75
2018-02-15T12:51:49.463Z,174.38
2018-02-15T12:52:49.736Z,174.38
2018-02-15T12:54:49.391Z,174.38
2018-02-15T12:55:49.370Z,163.13
2018-02-15T12:56:49.350Z,163.13
2018-02-15T12:57:49.398Z,163.13
2018-02-15T12:58:49.331Z,168.75
2018-02-15T12:59:49.678Z,163.13
2018-02-15T13:00:49.265Z,157.50
2018-02-15T13:01:49.391Z,151.88
2018-02-15T13:02:49.220Z,157.50
2018-02-15T13:03:49.185Z,163.13
2018-02-15T13:04:49.163Z,174.38
2018-02-15T13:05:49.449Z,196.88
2018-02-15T13:06:49.118Z,196.88
2018-02-15T13:07:49.094Z,180.00